B. E. Lindholm — WCY9878 — position and weather

sailwx.info

Track history (hours):
 
Tides and Currents Weather Stations Pressure Air Temp Water Temp Dewpoint Dewpoint Depression Visibility Wind Speed Wind Dir Waves Ship Positions

B. E. Lindholm

Owner: WEEKS MARINE, INC., CRANFORD, NJ. More information available from US FCC via Universal Licensing System.

Last reported at 2018-Feb-16 15:52 UTC. Time now 2018-Feb-19 01:53 UTC.
Position N 39°19' W 074°24'.

Length 91 m; draft 5.2 m.

Type: Dredging. MMSI: 368954410.

Date/timePositionNaut miles runAvg speedWind from/ knotsBaromVisibWave heightAir tempDewpointWater temp
2018-Feb-16 15:52N 39°19' W 074°24'0 0.8
2018-Feb-16 15:30N 39°19' W 074°24'1 0.7
2018-Feb-16 14:15N 39°19' W 074°23'6 0.4
2018-Feb-15 21:48N 39°18' W 074°30'0 0.3
2018-Feb-15 21:29N 39°18' W 074°30'1 1.0
2018-Feb-15 20:30N 39°18' W 074°29'5 0.7
2018-Feb-15 13:14N 39°19' W 074°23'6 5.5
2018-Feb-15 12:09N 39°18' W 074°30'0 0.0
2018-Feb-15 11:59N 39°18' W 074°30'0 0.0
2018-Feb-15 11:15N 39°18' W 074°30'5 3.4
2018-Feb-15 09:54N 39°19' W 074°24'0 0.8
2018-Feb-15 09:24N 39°19' W 074°24'0 0.8
2018-Feb-15 08:59N 39°19' W 074°24'1 0.8
2018-Feb-15 08:17N 39°19' W 074°23'6 8.5
2018-Feb-15 07:35N 39°18' W 074°30'0 0.2
2018-Feb-15 07:10N 39°18' W 074°30'0 0.1
2018-Feb-15 06:42N 39°18' W 074°30'6 2.1
2018-Feb-15 04:01N 39°19' W 074°23'42 6.6
2018-Feb-14 21:37N 38°48' W 075°01'4 9.6
2018-Feb-14 21:14N 38°49' W 075°05'8 1.8
2018-Feb-14 16:41N 38°49' W 074°55'2 9.7
2018-Feb-14 16:27N 38°49' W 074°53'5 9.4
2018-Feb-14 15:52N 38°53' W 074°47'4 9.7
2018-Feb-14 15:30N 38°56' W 074°45'6 9.8
2018-Feb-14 14:53N 39°01' W 074°40'1311.8
2018-Feb-14 13:48N 39°12' W 074°32'411.2
2018-Feb-14 13:29N 39°16' W 074°31'2 3.3
2018-Feb-14 12:50N 39°18' W 074°30'0 0.8
2018-Feb-14 12:21N 39°17' W 074°30'3 8.6
2018-Feb-14 12:00N 39°18' W 074°26'3 3.0
2018-Feb-14 11:10N 39°19' W 074°23'0 0.6
2018-Feb-14 10:56N 39°19' W 074°23'5 2.0
2018-Feb-14 08:10N 39°18' W 074°30'0 0.0
2018-Feb-14 08:00N 39°18' W 074°30'0 0.8
2018-Feb-14 07:28N 39°17' W 074°30'610.0
2018-Feb-14 06:55N 39°19' W 074°23'1 0.8
2018-Feb-14 05:59N 39°19' W 074°24'1 0.8
2018-Feb-14 05:04N 39°19' W 074°25'0 3.0
2018-Feb-14 04:57N 39°19' W 074°25'4 8.5
2018-Feb-14 04:28N 39°18' W 074°30'0 0.1
2018-Feb-14 03:51N 39°18' W 074°30'0 0.0
2018-Feb-14 03:10N 39°18' W 074°30'0 0.3
2018-Feb-14 02:59N 39°18' W 074°30'0 0.0
2018-Feb-13 09:15N 39°18' W 074°30'  
2018-Feb-10 21:28N 39°19' W 074°24'0 0.0
2018-Feb-10 02:47N 39°19' W 074°23'0 1.5
2018-Feb-10 02:30N 39°19' W 074°23'  
2018-Feb-07 22:22N 40°25' W 073°51'3 9.6
2018-Feb-07 22:00N 40°28' W 073°52'5 9.9
2018-Feb-07 21:30N 40°30' W 073°58'12 1.0
2018-Feb-07 09:30N 40°42' W 073°58'0 0.0
2018-Feb-07 08:57N 40°42' W 073°58'0 0.0
2018-Feb-07 08:30N 40°42' W 073°58'0 0.0
2018-Feb-07 08:00N 40°42' W 073°58'0 0.0
2018-Feb-07 07:30N 40°42' W 073°58'0 0.0
2018-Feb-07 07:00N 40°42' W 073°58'0 0.0
2018-Feb-07 06:30N 40°42' W 073°58'0 0.0
2018-Feb-07 06:00N 40°42' W 073°58'0 0.0
2018-Feb-07 05:30N 40°42' W 073°58'0 0.0
2018-Feb-07 05:00N 40°42' W 073°58'0 0.0
2018-Feb-07 04:30N 40°42' W 073°58'0 0.0
2018-Feb-07 04:00N 40°42' W 073°58'0 0.0
2018-Feb-07 03:30N 40°42' W 073°58'0 0.0
2018-Feb-07 03:00N 40°42' W 073°58'0 0.0
2018-Feb-07 02:30N 40°42' W 073°58'0 0.0
2018-Feb-07 02:00N 40°42' W 073°58'0 0.0
2018-Feb-07 01:27N 40°42' W 073°58'0 0.0
2018-Feb-07 01:00N 40°42' W 073°58'0 0.0
2018-Feb-07 00:30N 40°42' W 073°58'0 0.0
2018-Feb-07 00:00N 40°42' W 073°58'0 0.0
2018-Feb-06 23:30N 40°42' W 073°58'0 0.0
2018-Feb-06 23:00N 40°42' W 073°58'0 0.0
2018-Feb-06 22:30N 40°42' W 073°58'0 0.0
2018-Feb-06 22:00N 40°42' W 073°58'0 0.0
2018-Feb-06 21:30N 40°42' W 073°58'0 0.0
2018-Feb-06 21:00N 40°42' W 073°58'0 0.0
2018-Feb-06 20:30N 40°42' W 073°58'0 0.0
2018-Feb-06 20:00N 40°42' W 073°58'0 0.0
2018-Feb-06 19:30N 40°42' W 073°58'0 0.0
2018-Feb-06 19:00N 40°42' W 073°58'0 0.0
2018-Feb-06 18:30N 40°42' W 073°58'0 0.0
2018-Feb-06 18:00N 40°42' W 073°58'0 0.0
2018-Feb-06 17:30N 40°42' W 073°58'0 0.0
2018-Feb-06 17:00N 40°42' W 073°58'0 0.0
2018-Feb-06 16:30N 40°42' W 073°58'0 0.0
2018-Feb-06 16:00N 40°42' W 073°58'  
Track history (hours):
 
Tides and Currents Weather Stations Pressure Air Temp Water Temp Dewpoint Dewpoint Depression Visibility Wind Speed Wind Dir Waves Ship Positions

B. E. Lindholm

Owner: WEEKS MARINE, INC., CRANFORD, NJ. More information available from US FCC via Universal Licensing System.

Last reported at 2018-Feb-16 15:52 UTC. Time now 2018-Feb-19 01:54 UTC.
Position N 39°19' W 074°24'.

Length 91 m; draft 5.2 m.

Type: Dredging. MMSI: 368954410.

Date/timePositionNaut miles runAvg speedWind from/ knotsBaromVisibWave heightAir tempDewpointWater temp
2018-Feb-16 15:52N 39°19' W 074°24'0 0.8
2018-Feb-16 15:30N 39°19' W 074°24'1 0.7
2018-Feb-16 14:15N 39°19' W 074°23'6 0.4
2018-Feb-15 21:48N 39°18' W 074°30'0 0.3
2018-Feb-15 21:29N 39°18' W 074°30'1 1.0
2018-Feb-15 20:30N 39°18' W 074°29'5 0.7
2018-Feb-15 13:14N 39°19' W 074°23'6 5.5
2018-Feb-15 12:09N 39°18' W 074°30'0 0.0
2018-Feb-15 11:59N 39°18' W 074°30'0 0.0
2018-Feb-15 11:15N 39°18' W 074°30'5 3.4
2018-Feb-15 09:54N 39°19' W 074°24'0 0.8
2018-Feb-15 09:24N 39°19' W 074°24'0 0.8
2018-Feb-15 08:59N 39°19' W 074°24'1 0.8
2018-Feb-15 08:17N 39°19' W 074°23'6 8.5
2018-Feb-15 07:35N 39°18' W 074°30'0 0.2
2018-Feb-15 07:10N 39°18' W 074°30'0 0.1
2018-Feb-15 06:42N 39°18' W 074°30'6 2.1
2018-Feb-15 04:01N 39°19' W 074°23'42 6.6
2018-Feb-14 21:37N 38°48' W 075°01'4 9.6
2018-Feb-14 21:14N 38°49' W 075°05'8 1.8
2018-Feb-14 16:41N 38°49' W 074°55'2 9.7
2018-Feb-14 16:27N 38°49' W 074°53'5 9.4
2018-Feb-14 15:52N 38°53' W 074°47'4 9.7
2018-Feb-14 15:30N 38°56' W 074°45'6 9.8
2018-Feb-14 14:53N 39°01' W 074°40'1311.8
2018-Feb-14 13:48N 39°12' W 074°32'411.2
2018-Feb-14 13:29N 39°16' W 074°31'2 3.3
2018-Feb-14 12:50N 39°18' W 074°30'0 0.8
2018-Feb-14 12:21N 39°17' W 074°30'3 8.6
2018-Feb-14 12:00N 39°18' W 074°26'3 3.0
2018-Feb-14 11:10N 39°19' W 074°23'0 0.6
2018-Feb-14 10:56N 39°19' W 074°23'5 2.0
2018-Feb-14 08:10N 39°18' W 074°30'0 0.0
2018-Feb-14 08:00N 39°18' W 074°30'0 0.8
2018-Feb-14 07:28N 39°17' W 074°30'610.0
2018-Feb-14 06:55N 39°19' W 074°23'1 0.8
2018-Feb-14 05:59N 39°19' W 074°24'1 0.8
2018-Feb-14 05:04N 39°19' W 074°25'0 3.0
2018-Feb-14 04:57N 39°19' W 074°25'4 8.5
2018-Feb-14 04:28N 39°18' W 074°30'0 0.1
2018-Feb-14 03:51N 39°18' W 074°30'0 0.0
2018-Feb-14 03:10N 39°18' W 074°30'0 0.3
2018-Feb-14 02:59N 39°18' W 074°30'0 0.0
2018-Feb-13 09:15N 39°18' W 074°30'  
2018-Feb-10 21:28N 39°19' W 074°24'0 0.0
2018-Feb-10 02:47N 39°19' W 074°23'0 1.5
2018-Feb-10 02:30N 39°19' W 074°23'  
2018-Feb-07 22:22N 40°25' W 073°51'3 9.6
2018-Feb-07 22:00N 40°28' W 073°52'5 9.9
2018-Feb-07 21:30N 40°30' W 073°58'12 1.0
2018-Feb-07 09:30N 40°42' W 073°58'0 0.0
2018-Feb-07 08:57N 40°42' W 073°58'0 0.0
2018-Feb-07 08:30N 40°42' W 073°58'0 0.0
2018-Feb-07 08:00N 40°42' W 073°58'0 0.0
2018-Feb-07 07:30N 40°42' W 073°58'0 0.0
2018-Feb-07 07:00N 40°42' W 073°58'0 0.0
2018-Feb-07 06:30N 40°42' W 073°58'0 0.0
2018-Feb-07 06:00N 40°42' W 073°58'0 0.0
2018-Feb-07 05:30N 40°42' W 073°58'0 0.0
2018-Feb-07 05:00N 40°42' W 073°58'0 0.0
2018-Feb-07 04:30N 40°42' W 073°58'0 0.0
2018-Feb-07 04:00N 40°42' W 073°58'0 0.0
2018-Feb-07 03:30N 40°42' W 073°58'0 0.0
2018-Feb-07 03:00N 40°42' W 073°58'0 0.0
2018-Feb-07 02:30N 40°42' W 073°58'0 0.0
2018-Feb-07 02:00N 40°42' W 073°58'0 0.0
2018-Feb-07 01:27N 40°42' W 073°58'0 0.0
2018-Feb-07 01:00N 40°42' W 073°58'0 0.0
2018-Feb-07 00:30N 40°42' W 073°58'0 0.0
2018-Feb-07 00:00N 40°42' W 073°58'0 0.0
2018-Feb-06 23:30N 40°42' W 073°58'0 0.0
2018-Feb-06 23:00N 40°42' W 073°58'0 0.0
2018-Feb-06 22:30N 40°42' W 073°58'0 0.0
2018-Feb-06 22:00N 40°42' W 073°58'0 0.0
2018-Feb-06 21:30N 40°42' W 073°58'0 0.0
2018-Feb-06 21:00N 40°42' W 073°58'0 0.0
2018-Feb-06 20:30N 40°42' W 073°58'0 0.0
2018-Feb-06 20:00N 40°42' W 073°58'0 0.0
2018-Feb-06 19:30N 40°42' W 073°58'0 0.0
2018-Feb-06 19:00N 40°42' W 073°58'0 0.0
2018-Feb-06 18:30N 40°42' W 073°58'0 0.0
2018-Feb-06 18:00N 40°42' W 073°58'0 0.0
2018-Feb-06 17:30N 40°42' W 073°58'0 0.0
2018-Feb-06 17:00N 40°42' W 073°58'0 0.0
2018-Feb-06 16:30N 40°42' W 073°58'0 0.0
2018-Feb-06 16:00N 40°42' W 073°58'  

Dump ship's entire track history